Time;durP1;ratioP1;P1;durP2;ratioP2;P2;SDS_P1;SDS_P2;PMS_P1;PMS_P2;Temp;Humidity;BMP_temperature;BMP_pressure;BME280_temperature;BME280_humidity;BME280_pressure;Samples;Min_cycle;Max_cycle;Signal;HPM_P1;HPM_P2
2023/03/05 01:08:14;;;;;;;7.20;1.52;;;5.10;99.90;;;;;;4959746;28;20245;-96
2023/03/05 01:10:42;;;;;;;5.18;1.50;;;5.20;99.90;;;;;;4953159;29;20043;-96
2023/03/05 01:13:08;;;;;;;8.55;2.58;;;5.40;99.90;;;;;;4950216;29;20401;-95
2023/03/05 01:16:07;;;;;;;9.50;1.90;;;5.30;99.90;;;;;;4952163;29;20047;-96
2023/03/05 01:18:34;;;;;;;8.10;2.20;;;5.20;99.90;;;;;;4936081;29;20063;-95
2023/03/05 01:21:04;;;;;;;8.32;2.05;;;5.60;99.90;;;;;;4952440;29;20027;-95
2023/03/05 01:23:30;;;;;;;10.10;1.65;;;5.20;99.90;;;;;;4955880;29;20028;-95
2023/03/05 01:26:26;;;;;;;10.70;1.80;;;5.20;99.90;;;;;;4971199;23;20150;-96
2023/03/05 01:28:58;;;;;;;10.02;1.80;;;5.90;99.90;;;;;;4978355;23;20119;-95
2023/03/05 01:32:20;;;;;;;5.25;1.70;;;5.90;99.90;;;;;;4996294;23;20063;-96
2023/03/05 01:34:50;;;;;;;9.95;1.52;;;4.70;99.90;;;;;;4965893;23;20086;-95
2023/03/05 01:37:19;;;;;;;8.75;2.25;;;5.20;99.90;;;;;;4938008;29;20028;-96
2023/03/05 01:39:48;;;;;;;10.80;2.65;;;5.10;99.90;;;;;;4956158;29;20065;-95
2023/03/05 02:18:44;;;;;;;15.25;2.35;;;5.00;99.90;;;;;;5145191;23;20055;-96
2023/03/05 02:36:17;;;;;;;8.48;1.90;;;4.80;99.90;;;;;;4957973;29;20088;-95
2023/03/05 02:58:49;;;;;;;12.77;2.10;;;5.10;99.90;;;;;;4952412;29;20051;-94
2023/03/05 03:04:43;;;;;;;9.13;3.03;;;5.80;99.90;;;;;;4930752;29;20039;-96
2023/03/05 03:07:13;;;;;;;16.80;3.05;;;5.10;99.90;;;;;;5011378;23;20056;-94
2023/03/05 03:09:45;;;;;;;7.80;1.70;;;5.50;99.90;;;;;;4954631;29;20035;-96
2023/03/05 03:35:19;;;;;;;11.70;2.28;;;5.10;99.90;;;;;;5121115;23;20075;-95
2023/03/05 03:37:49;;;;;;;10.48;1.95;;;5.20;99.90;;;;;;4968925;29;20039;-96
2023/03/05 03:40:18;;;;;;;7.85;1.80;;;5.70;99.90;;;;;;4952266;29;20035;-96
2023/03/05 03:42:51;;;;;;;8.15;1.52;;;5.20;99.90;;;;;;4965614;29;20048;-96
2023/03/05 03:45:20;;;;;;;8.10;1.73;;;5.20;99.90;;;;;;4970481;29;20083;-93
2023/03/05 03:47:49;;;;;;;11.77;1.73;;;5.20;99.90;;;;;;4953668;29;20035;-94
2023/03/05 03:51:18;;;;;;;7.00;2.05;;;5.20;99.90;;;;;;4992517;23;20134;-93
2023/03/05 03:57:32;;;;;;;8.13;2.40;;;4.60;99.90;;;;;;4953657;29;20038;-96
2023/03/05 04:00:31;;;;;;;6.57;2.13;;;5.00;99.90;;;;;;4903376;29;20210;-96
2023/03/05 04:02:59;;;;;;;9.23;2.38;;;5.00;99.90;;;;;;4852450;29;20057;-96
2023/03/05 04:05:29;;;;;;;10.38;2.50;;;4.50;99.90;;;;;;4865319;29;20061;-96
2023/03/05 04:13:05;;;;;;;5.43;2.45;;;5.00;99.90;;;;;;4988975;23;20646;-95
2023/03/05 04:18:26;;;;;;;9.57;2.38;;;4.80;99.90;;;;;;4951300;23;20048;-96
2023/03/05 04:20:52;;;;;;;7.47;2.03;;;4.70;99.90;;;;;;4937833;29;20039;-95
2023/03/05 04:23:20;;;;;;;9.98;2.17;;;5.20;99.90;;;;;;4920286;29;20028;-95
2023/03/05 04:25:49;;;;;;;5.82;2.47;;;4.60;99.90;;;;;;4934915;29;20048;-96
2023/03/05 04:28:21;;;;;;;7.57;1.80;;;4.00;99.90;;;;;;4935300;29;20370;-96
2023/03/05 04:30:49;;;;;;;5.95;1.73;;;4.50;99.90;;;;;;4924768;29;20048;-95
2023/03/05 04:33:16;;;;;;;7.28;1.55;;;4.50;99.90;;;;;;4932332;29;20036;-94
2023/03/05 04:40:47;;;;;;;4.82;1.83;;;4.80;99.90;;;;;;4904471;29;20056;-95
2023/03/05 04:43:13;;;;;;;10.45;1.77;;;5.20;99.90;;;;;;4906350;29;20032;-95
2023/03/05 04:48:17;;;;;;;6.55;1.67;;;4.90;99.90;;;;;;4963378;23;20083;-95
2023/03/05 04:50:44;;;;;;;4.72;1.55;;;4.90;99.90;;;;;;4943765;29;20452;-95
2023/03/05 04:53:13;;;;;;;6.32;1.50;;;4.90;99.90;;;;;;4961933;23;20047;-95
2023/03/05 04:55:43;;;;;;;8.95;1.92;;;4.90;99.90;;;;;;4955328;23;20055;-96
2023/03/05 04:58:11;;;;;;;8.32;1.65;;;5.40;99.90;;;;;;4946796;29;20023;-96
2023/03/05 05:00:39;;;;;;;4.80;2.05;;;4.00;99.90;;;;;;4947875;29;20087;-95
2023/03/05 05:03:05;;;;;;;7.82;1.58;;;4.80;99.90;;;;;;4947975;29;20055;-96
2023/03/05 05:05:31;;;;;;;5.55;1.48;;;5.10;99.90;;;;;;4949798;29;20059;-95
2023/03/05 05:07:57;;;;;;;8.00;1.38;;;5.00;99.90;;;;;;4947889;29;20030;-95
2023/03/05 05:10:26;;;;;;;4.15;1.00;;;5.10;99.90;;;;;;4944998;29;20039;-95
2023/03/05 05:12:58;;;;;;;6.43;1.00;;;5.70;99.90;;;;;;4932456;29;20007;-94
2023/03/05 05:15:24;;;;;;;2.35;0.70;;;5.20;99.90;;;;;;4954254;28;20114;-95
2023/03/05 05:20:19;;;;;;;3.40;0.70;;;5.10;99.90;;;;;;4947447;23;20087;-95
2023/03/05 05:22:45;;;;;;;1.92;0.70;;;5.10;99.90;;;;;;4943995;29;20479;-95
2023/03/05 05:25:11;;;;;;;0.85;0.60;;;5.10;99.90;;;;;;4944243;29;20032;-94
2023/03/05 05:27:40;;;;;;;1.60;0.70;;;5.10;99.90;;;;;;4946188;29;20023;-94
2023/03/05 05:30:08;;;;;;;2.67;0.77;;;5.10;99.90;;;;;;4919643;29;20063;-95
2023/03/05 05:32:34;;;;;;;3.78;0.95;;;4.80;99.90;;;;;;4945768;29;20386;-95
2023/03/05 05:35:00;;;;;;;3.85;1.10;;;4.90;99.90;;;;;;4945674;29;20435;-94
2023/03/05 05:37:26;;;;;;;1.48;0.90;;;5.20;99.90;;;;;;4946393;29;20031;-95
2023/03/05 05:39:52;;;;;;;4.85;1.17;;;5.20;99.90;;;;;;4948595;29;20032;-93
2023/03/05 05:42:21;;;;;;;2.05;0.90;;;4.60;99.90;;;;;;4950099;29;20032;-95
2023/03/05 05:44:47;;;;;;;2.53;1.10;;;4.50;99.90;;;;;;4949075;29;20055;-96
2023/03/05 05:47:16;;;;;;;4.82;1.10;;;4.30;99.90;;;;;;4956392;29;20043;-96
2023/03/05 05:49:42;;;;;;;3.80;0.80;;;4.80;99.90;;;;;;4953035;28;20036;-94
2023/03/05 05:52:08;;;;;;;4.35;1.00;;;4.90;99.90;;;;;;4943247;29;20034;-96
2023/03/05 05:54:34;;;;;;;4.00;1.13;;;5.50;99.90;;;;;;4943125;29;20116;-95
2023/03/05 05:57:00;;;;;;;1.60;0.60;;;5.60;99.90;;;;;;4996139;23;20047;-96
2023/03/05 06:07:33;;;;;;;4.05;1.20;;;4.90;99.90;;;;;;4914253;29;20049;-95
2023/03/05 06:28:09;;;;;;;2.78;1.42;;;5.00;99.90;;;;;;4931570;29;20052;-94
2023/03/05 06:30:38;;;;;;;5.35;2.35;;;4.90;99.90;;;;;;4980567;23;20052;-96
2023/03/05 06:35:39;;;;;;;6.32;2.60;;;5.00;99.90;;;;;;5075360;23;20067;-94
2023/03/05 06:38:07;;;;;;;7.03;3.55;;;5.00;99.90;;;;;;4941176;29;20012;-92
2023/03/05 06:40:34;;;;;;;5.03;3.40;;;5.70;99.90;;;;;;4939772;29;20484;-94
2023/03/05 06:43:00;;;;;;;6.65;3.17;;;5.40;99.90;;;;;;4927671;29;20032;-95
2023/03/05 06:45:26;;;;;;;7.10;3.70;;;4.90;99.90;;;;;;4929308;29;20392;-95
2023/03/05 06:47:52;;;;;;;6.53;3.67;;;4.80;99.90;;;;;;4923222;29;20028;-94
2023/03/05 06:50:17;;;;;;;5.57;3.42;;;4.90;99.90;;;;;;4922316;29;20380;-94
2023/03/05 06:52:48;;;;;;;5.65;3.75;;;4.80;99.90;;;;;;4921496;29;20020;-94
2023/03/05 06:55:15;;;;;;;4.65;3.70;;;4.80;99.90;;;;;;4923697;29;20032;-93
2023/03/05 06:57:42;;;;;;;5.35;3.42;;;5.30;99.90;;;;;;4916251;29;20088;-95
2023/03/05 07:00:12;;;;;;;7.32;2.90;;;4.90;99.90;;;;;;4928087;29;20028;-95
2023/03/05 07:03:14;;;;;;;5.05;3.03;;;4.90;99.90;;;;;;4871394;29;20536;-96
2023/03/05 07:05:42;;;;;;;4.82;3.13;;;4.90;99.90;;;;;;4837562;29;20030;-95
2023/03/05 07:08:14;;;;;;;2.85;2.20;;;5.40;99.90;;;;;;4887958;23;20067;-96
2023/03/05 07:11:07;;;;;;;5.40;2.30;;;4.80;99.90;;;;;;5096920;23;20059;-93
2023/03/05 07:23:14;;;;;;;5.47;1.60;;;4.80;99.90;;;;;;4929057;29;20043;-94
2023/03/05 07:26:11;;;;;;;4.13;1.33;;;5.90;99.90;;;;;;4990897;23;20063;-95
2023/03/05 07:28:40;;;;;;;4.60;1.60;;;5.00;99.90;;;;;;4928065;29;20052;-94
2023/03/05 07:31:10;;;;;;;3.03;1.25;;;5.00;99.90;;;;;;4923437;29;20051;-96
2023/03/05 07:33:37;;;;;;;4.40;1.40;;;4.50;99.90;;;;;;4909324;29;20028;-94
2023/03/05 07:36:06;;;;;;;4.85;1.17;;;4.90;99.90;;;;;;4915686;29;20116;-95
2023/03/05 07:38:31;;;;;;;3.17;1.30;;;4.90;99.90;;;;;;4909352;29;20024;-94
2023/03/05 07:41:05;;;;;;;2.67;1.10;;;5.60;99.90;;;;;;4908642;29;20035;-95
2023/03/05 07:43:30;;;;;;;2.85;0.95;;;5.10;99.90;;;;;;4910347;29;20029;-93
2023/03/05 07:45:56;;;;;;;4.20;1.17;;;5.60;99.90;;;;;;4927636;29;20045;-94
2023/03/05 07:48:22;;;;;;;6.32;1.30;;;5.20;99.90;;;;;;4921322;29;20695;-95
2023/03/05 07:51:20;;;;;;;4.43;1.20;;;5.20;99.90;;;;;;4926182;23;20059;-94
2023/03/05 07:53:54;;;;;;;2.17;1.20;;;5.30;99.90;;;;;;4934616;23;20079;-95
2023/03/05 07:56:47;;;;;;;3.67;1.40;;;5.30;99.90;;;;;;4923081;29;20512;-94
2023/03/05 07:59:21;;;;;;;3.83;1.10;;;4.50;99.90;;;;;;4912017;29;20032;-96
2023/03/05 08:09:53;;;;;;;4.28;0.90;;;4.80;99.90;;;;;;5002687;23;20063;-94
2023/03/05 08:15:08;;;;;;;2.22;0.60;;;4.80;99.90;;;;;;4975548;23;20063;-94
2023/03/05 08:17:33;;;;;;;2.85;0.63;;;4.70;99.90;;;;;;4947545;29;20539;-93
2023/03/05 08:20:04;;;;;;;3.10;0.60;;;5.00;99.90;;;;;;4944716;29;20019;-95
2023/03/05 08:22:33;;;;;;;;;;;5.30;99.90;;;;;;4945274;29;20103;-94
2023/03/05 08:25:01;;;;;;;3.60;1.27;;;4.80;99.90;;;;;;4946678;29;19954;-94
2023/03/05 08:27:26;;;;;;;6.63;0.80;;;5.00;99.90;;;;;;4943491;29;20480;-94
2023/03/05 08:29:52;;;;;;;2.05;0.50;;;5.00;99.90;;;;;;4942319;29;20055;-94
2023/03/05 08:32:24;;;;;;;1.33;0.52;;;4.90;99.90;;;;;;4946404;29;20034;-93
2023/03/05 08:34:49;;;;;;;1.95;0.77;;;5.00;99.90;;;;;;4944409;29;20023;-93
2023/03/05 08:37:24;;;;;;;2.55;0.85;;;5.60;99.90;;;;;;4943373;29;20107;-93
2023/03/05 08:39:56;;;;;;;1.88;0.70;;;5.00;99.90;;;;;;4945462;29;20019;-94
2023/03/05 08:42:24;;;;;;;2.15;0.73;;;5.00;99.90;;;;;;4942195;29;20476;-95
2023/03/05 08:44:55;;;;;;;3.33;0.80;;;4.80;99.90;;;;;;4949207;29;20127;-94
2023/03/05 08:47:27;;;;;;;1.98;0.50;;;5.10;99.90;;;;;;4942845;29;20102;-94
2023/03/05 08:50:01;;;;;;;4.82;0.55;;;4.70;99.90;;;;;;4949234;29;20116;-96
2023/03/05 08:52:29;;;;;;;4.88;0.70;;;5.70;99.90;;;;;;4948885;29;20058;-96
2023/03/05 09:00:04;;;;;;;2.55;0.90;;;5.30;99.90;;;;;;4921716;29;20064;-94
2023/03/05 09:05:07;;;;;;;3.83;1.27;;;5.40;99.90;;;;;;4920934;29;20056;-93
2023/03/05 09:07:36;;;;;;;1.92;1.20;;;5.40;99.90;;;;;;4910814;29;20048;-94
2023/03/05 09:10:03;;;;;;;2.47;0.95;;;5.80;99.90;;;;;;4903427;29;20053;-93
2023/03/05 09:12:28;;;;;;;3.00;1.00;;;5.30;99.90;;;;;;4929007;29;20024;-94
2023/03/05 09:15:01;;;;;;;3.72;0.90;;;6.30;99.90;;;;;;4926893;29;20040;-95
2023/03/05 09:19:58;;;;;;;5.88;2.15;;;5.50;99.90;;;;;;4940299;29;20075;-94
2023/03/05 09:22:28;;;;;;;3.65;1.45;;;5.40;99.90;;;;;;4928909;29;20055;-95
2023/03/05 09:30:55;;;;;;;1.73;0.80;;;5.50;99.90;;;;;;4942156;29;20045;-94
2023/03/05 09:38:28;;;;;;;7.20;1.10;;;5.70;99.90;;;;;;5568046;23;20079;-94
2023/03/05 09:43:51;;;;;;;5.07;1.23;;;5.70;99.90;;;;;;4924015;23;20133;-91
2023/03/05 09:50:14;;;;;;;3.35;1.00;;;5.80;99.90;;;;;;5162276;23;20058;-94
2023/03/05 09:56:46;;;;;;;4.20;1.30;;;5.70;99.90;;;;;;4940591;29;20058;-95
2023/03/05 09:59:27;;;;;;;3.75;1.52;;;5.90;99.90;;;;;;4937469;29;20468;-93
2023/03/05 10:01:57;;;;;;;;;;;5.90;99.90;;;;;;4942803;28;20016;-93
2023/03/05 10:04:55;;;;;;;3.03;0.95;;;5.90;99.90;;;;;;5033829;23;19926;-95
2023/03/05 10:07:32;;;;;;;2.55;0.60;;;5.90;99.90;;;;;;4939736;23;20139;-94
2023/03/05 10:13:03;;;;;;;2.60;0.80;;;5.90;99.90;;;;;;4971307;23;20071;-93
2023/03/05 10:15:35;;;;;;;4.00;0.63;;;5.50;99.90;;;;;;4940093;28;20032;-92
2023/03/05 10:21:00;;;;;;;7.80;0.88;;;6.10;99.90;;;;;;4963841;23;20086;-93
2023/03/05 10:23:56;;;;;;;3.30;0.98;;;6.50;99.90;;;;;;4938448;29;20016;-93
2023/03/05 10:27:02;;;;;;;3.22;0.85;;;6.20;99.90;;;;;;4957618;29;20031;-95
2023/03/05 10:36:44;;;;;;;2.55;0.60;;;6.10;99.90;;;;;;4900061;29;20031;-93
2023/03/05 10:39:47;;;;;;;2.45;0.60;;;5.80;99.90;;;;;;4941412;23;20095;-93
2023/03/05 10:46:11;;;;;;;9.57;2.20;;;5.90;99.90;;;;;;4956935;29;20459;-93
2023/03/05 10:48:43;;;;;;;2.63;1.10;;;5.30;99.90;;;;;;4956498;23;20060;-92
2023/03/05 10:51:09;;;;;;;6.80;1.25;;;5.90;99.90;;;;;;4940053;29;20040;-93
2023/03/05 10:53:51;;;;;;;3.78;0.80;;;5.70;99.90;;;;;;4937740;29;20428;-94
2023/03/05 11:02:12;;;;;;;2.38;1.08;;;5.30;99.90;;;;;;4957469;29;20062;-95
2023/03/05 11:04:41;;;;;;;15.85;8.52;;;6.60;99.90;;;;;;4960539;23;20018;-93
2023/03/05 11:07:40;;;;;;;3.33;1.80;;;5.40;99.90;;;;;;4937727;29;20048;-94
2023/03/05 11:12:44;;;;;;;2.03;0.82;;;5.50;99.90;;;;;;4961042;23;20534;-94
2023/03/05 11:15:15;;;;;;;3.20;0.80;;;6.10;99.90;;;;;;4956660;29;20498;-94
2023/03/05 11:17:49;;;;;;;0.40;0.38;;;6.00;99.90;;;;;;4956750;28;20038;-95
2023/03/05 11:20:48;;;;;;;1.85;0.30;;;6.30;99.90;;;;;;4956943;29;20023;-92
2023/03/05 11:23:25;;;;;;;1.15;0.60;;;6.20;99.90;;;;;;4879019;29;20389;-94
2023/03/05 11:25:53;;;;;;;3.25;0.45;;;6.00;99.90;;;;;;4952810;29;20464;-94
2023/03/05 11:28:22;;;;;;;2.40;0.40;;;6.00;99.90;;;;;;4956462;23;20044;-94
2023/03/05 11:31:17;;;;;;;2.72;0.60;;;6.60;99.90;;;;;;4937251;29;20039;-93
2023/03/05 11:34:12;;;;;;;3.85;0.70;;;6.10;99.90;;;;;;4957208;23;20139;-94
2023/03/05 11:36:51;;;;;;;2.25;0.80;;;6.20;99.90;;;;;;4936474;29;20075;-93
2023/03/05 11:39:21;;;;;;;5.53;3.33;;;6.20;99.90;;;;;;4943489;23;20043;-94
2023/03/05 11:42:23;;;;;;;2.38;0.77;;;6.50;99.90;;;;;;4950088;23;20059;-94
2023/03/05 11:44:52;;;;;;;6.03;1.20;;;6.30;99.90;;;;;;4937264;29;20032;-93
2023/03/05 11:47:47;;;;;;;2.45;0.77;;;6.40;99.90;;;;;;4936334;29;20039;-94
2023/03/05 11:50:22;;;;;;;3.55;1.08;;;6.40;99.90;;;;;;4936548;29;20036;-93
2023/03/05 11:53:23;;;;;;;3.20;0.77;;;6.40;99.90;;;;;;4943164;23;20043;-93
2023/03/05 11:55:51;;;;;;;;;;;6.50;99.90;;;;;;4943957;23;20055;-93
2023/03/05 11:58:56;;;;;;;1.35;0.60;;;7.10;99.90;;;;;;4944058;23;19926;-94
2023/03/05 12:01:24;;;;;;;4.13;1.20;;;6.60;99.90;;;;;;4937306;29;20082;-93
2023/03/05 12:03:51;;;;;;;6.28;1.30;;;7.00;99.90;;;;;;4936449;29;20539;-93
2023/03/05 12:06:56;;;;;;;2.70;0.68;;;7.10;99.90;;;;;;4943038;23;20052;-95
2023/03/05 12:09:53;;;;;;;1.50;0.50;;;7.00;99.90;;;;;;4965852;23;20063;-93
2023/03/05 12:12:56;;;;;;;2.67;0.82;;;6.80;99.90;;;;;;4938671;29;20031;-91
2023/03/05 12:15:55;;;;;;;2.08;0.50;;;7.10;99.90;;;;;;4938596;29;20027;-93
2023/03/05 12:18:58;;;;;;;2.10;1.50;;;6.90;99.90;;;;;;4936549;29;20028;-92
2023/03/05 12:24:03;;;;;;;1.10;0.70;;;6.90;99.90;;;;;;4947655;23;20100;-93
2023/03/05 12:27:03;;;;;;;3.67;1.20;;;7.30;99.90;;;;;;4949714;23;20134;-93
2023/03/05 12:32:05;;;;;;;5.75;1.00;;;6.90;99.90;;;;;;5102224;23;20083;-91
2023/03/05 12:37:02;;;;;;;4.63;1.08;;;7.00;99.90;;;;;;4955212;23;20052;-93
2023/03/05 12:40:11;;;;;;;3.80;1.10;;;6.50;99.90;;;;;;4946863;23;20501;-92
2023/03/05 12:42:38;;;;;;;4.20;1.10;;;7.00;99.90;;;;;;4946634;23;20103;-94
2023/03/05 12:45:14;;;;;;;1.67;0.90;;;7.60;99.90;;;;;;4947775;23;20055;-90
2023/03/05 12:48:35;;;;;;;0.60;0.60;;;7.20;99.90;;;;;;4948274;23;20039;-93
2023/03/05 12:51:04;;;;;;;4.05;0.88;;;7.90;99.90;;;;;;4947062;23;20066;-94
2023/03/05 12:56:38;;;;;;;2.33;0.73;;;7.30;99.90;;;;;;4948723;23;20122;-93
2023/03/05 13:04:37;;;;;;;2.47;0.80;;;7.30;99.90;;;;;;4944618;23;20059;-94
2023/03/05 13:07:14;;;;;;;2.22;0.88;;;8.30;99.90;;;;;;4962051;23;20066;-93
2023/03/05 13:12:12;;;;;;;4.40;0.80;;;7.10;99.90;;;;;;4944687;23;20128;-93
2023/03/05 13:14:44;;;;;;;0.63;0.52;;;7.70;99.90;;;;;;4939567;29;20031;-94
2023/03/05 13:18:07;;;;;;;2.05;0.70;;;7.90;99.90;;;;;;4946306;23;20044;-92
2023/03/05 13:20:38;;;;;;;4.65;1.15;;;7.10;99.90;;;;;;4939472;29;20467;-93
2023/03/05 13:23:15;;;;;;;2.95;0.82;;;7.10;99.90;;;;;;4939742;29;20031;-94
2023/03/05 13:25:41;;;;;;;2.58;1.38;;;8.30;99.90;;;;;;4939543;29;20099;-93
2023/03/05 13:28:15;;;;;;;4.05;0.85;;;7.70;99.90;;;;;;4939870;29;20435;-93
2023/03/05 13:31:14;;;;;;;2.17;0.90;;;7.80;99.90;;;;;;4939604;29;20035;-92
2023/03/05 13:33:52;;;;;;;1.27;0.70;;;7.30;99.90;;;;;;4921954;29;20040;-93
2023/03/05 13:36:18;;;;;;;2.60;0.60;;;7.90;99.90;;;;;;4935918;29;20083;-92
2023/03/05 13:38:47;;;;;;;7.03;0.80;;;7.90;99.90;;;;;;4948069;29;20020;-92
2023/03/05 13:41:41;;;;;;;1.92;0.70;;;8.00;99.90;;;;;;4938904;29;20036;-94
2023/03/05 13:44:41;;;;;;;2.55;0.80;;;7.50;99.90;;;;;;4934503;29;20176;-93
2023/03/05 13:47:18;;;;;;;3.03;1.00;;;7.40;99.90;;;;;;4938318;29;20039;-93
2023/03/05 13:49:44;;;;;;;2.35;1.08;;;7.80;99.90;;;;;;4939454;29;20031;-93
2023/03/05 13:52:43;;;;;;;2.13;0.80;;;7.70;99.90;;;;;;4958904;28;20020;-93
2023/03/05 13:55:28;;;;;;;1.83;0.60;;;7.40;99.90;;;;;;4940121;23;20060;-94
2023/03/05 13:57:54;;;;;;;1.88;0.80;;;7.30;99.90;;;;;;4987335;23;20066;-91
2023/03/05 14:00:33;;;;;;;3.40;0.75;;;8.00;99.90;;;;;;4958800;23;20051;-94
2023/03/05 14:03:31;;;;;;;2.47;1.20;;;7.30;99.90;;;;;;4960872;28;20032;-93
2023/03/05 14:06:01;;;;;;;3.17;0.98;;;7.30;99.90;;;;;;4945802;29;20032;-94
2023/03/05 14:08:33;;;;;;;1.80;0.90;;;8.60;99.90;;;;;;4941467;29;20051;-94
2023/03/05 14:11:34;;;;;;;3.80;1.35;;;7.30;99.90;;;;;;4940029;29;20043;-93
2023/03/05 14:17:40;;;;;;;1.92;1.40;;;7.30;99.90;;;;;;4922601;29;20122;-93
2023/03/05 14:20:12;;;;;;;3.28;1.08;;;6.90;99.90;;;;;;4928369;29;20095;-93
2023/03/05 14:22:40;;;;;;;2.90;1.23;;;7.20;99.90;;;;;;4925996;29;20472;-94
2023/03/05 14:25:39;;;;;;;5.13;0.73;;;7.70;99.90;;;;;;4931998;29;20535;-93
2023/03/05 14:28:50;;;;;;;3.92;0.52;;;7.20;99.90;;;;;;4919516;29;20032;-92
2023/03/05 14:34:08;;;;;;;1.73;0.43;;;7.20;99.90;;;;;;4936722;23;20121;-93
2023/03/05 14:36:47;;;;;;;1.17;0.50;;;6.20;99.90;;;;;;4937839;29;20119;-94
2023/03/05 14:39:44;;;;;;;2.45;1.30;;;7.20;99.90;;;;;;4938385;29;20098;-94
2023/03/05 14:42:49;;;;;;;1.63;0.60;;;6.80;99.90;;;;;;4939544;29;20027;-93
2023/03/05 14:45:19;;;;;;;3.05;0.50;;;6.70;99.90;;;;;;4913160;29;20087;-94
2023/03/05 14:47:52;;;;;;;3.50;0.77;;;7.10;99.90;;;;;;4931650;29;20024;-94
2023/03/05 14:50:26;;;;;;;3.42;0.90;;;8.10;99.90;;;;;;4926283;29;20028;-93
2023/03/05 14:52:59;;;;;;;3.20;0.73;;;8.50;99.90;;;;;;4926070;29;20036;-95
2023/03/05 14:56:03;;;;;;;2.08;0.70;;;8.10;99.90;;;;;;4927719;29;20020;-94
2023/03/05 15:04:59;;;;;;;2.67;0.77;;;6.70;99.90;;;;;;4924120;29;20060;-94
2023/03/05 15:07:33;;;;;;;5.00;0.85;;;6.50;99.90;;;;;;4924492;29;20024;-93
2023/03/05 15:10:02;;;;;;;2.35;0.90;;;6.60;99.90;;;;;;4919259;29;20500;-93
2023/03/05 15:28:43;;;;;;;;;;;;;;;;;;;;;
2023/03/05 15:31:29;;;;;;;2.95;1.10;;;6.90;99.90;;;;;;4864746;29;20048;-95
2023/03/05 15:34:36;;;;;;;;;;;;;;;;;;;;;
2023/03/05 15:40:28;;;;;;;4.53;1.13;;;6.90;99.90;;;;;;4860268;29;20089;-94
2023/03/05 15:51:25;;;;;;;2.85;0.60;;;6.90;99.90;;;;;;5963834;23;20071;-95
2023/03/05 15:53:51;;;;;;;1.73;0.63;;;6.80;99.90;;;;;;5571639;23;20518;-91
2023/03/05 15:56:17;;;;;;;3.45;1.30;;;6.70;99.90;;;;;;4929044;29;20047;-92
2023/03/05 15:58:44;;;;;;;5.22;1.52;;;6.70;99.90;;;;;;4936921;29;20038;-91
2023/03/05 16:01:14;;;;;;;5.75;0.80;;;6.70;99.90;;;;;;4931662;29;20032;-91
2023/03/05 16:03:40;;;;;;;2.97;0.98;;;6.50;99.90;;;;;;4926380;29;20132;-92
2023/03/05 16:06:07;;;;;;;3.08;0.70;;;6.80;99.90;;;;;;4931031;29;20483;-93
2023/03/05 16:08:35;;;;;;;4.50;0.93;;;6.40;99.90;;;;;;4927325;29;20047;-92
2023/03/05 16:11:01;;;;;;;2.17;0.90;;;6.40;99.90;;;;;;4934831;29;20115;-91
2023/03/05 16:13:28;;;;;;;2.95;0.77;;;6.50;99.90;;;;;;4926868;29;20031;-91
2023/03/05 16:15:55;;;;;;;6.25;0.85;;;6.50;99.90;;;;;;4935201;29;20034;-91
2023/03/05 16:18:23;;;;;;;3.33;0.80;;;6.40;99.90;;;;;;4920436;29;20036;-93
2023/03/05 16:20:48;;;;;;;3.83;0.93;;;6.30;99.90;;;;;;4930627;29;20032;-92
2023/03/05 16:23:14;;;;;;;2.80;0.95;;;6.30;99.90;;;;;;4923557;29;20169;-91
2023/03/05 16:25:39;;;;;;;1.40;0.80;;;6.20;99.90;;;;;;4928017;29;20076;-93
2023/03/05 16:28:05;;;;;;;1.83;0.80;;;6.10;99.90;;;;;;4923567;29;20028;-94
2023/03/05 16:30:31;;;;;;;4.05;1.02;;;6.10;99.90;;;;;;4922596;29;20099;-94
2023/03/05 16:32:58;;;;;;;5.10;1.00;;;6.10;99.90;;;;;;4922896;29;20031;-93
2023/03/05 16:35:24;;;;;;;1.20;1.02;;;6.10;99.90;;;;;;4917543;29;20574;-91
2023/03/05 16:37:50;;;;;;;2.40;1.20;;;6.10;99.90;;;;;;4918441;29;20059;-93
2023/03/05 16:40:15;;;;;;;3.38;1.05;;;6.10;99.90;;;;;;4931015;29;20032;-94
2023/03/05 16:42:41;;;;;;;4.30;1.48;;;6.00;99.90;;;;;;4917753;29;20088;-91
2023/03/05 16:45:08;;;;;;;1.70;1.10;;;5.90;99.90;;;;;;4930463;29;20028;-92
2023/03/05 16:47:33;;;;;;;1.70;0.85;;;5.90;99.90;;;;;;4921225;29;20402;-91
2023/03/05 16:49:59;;;;;;;3.95;1.30;;;5.80;99.90;;;;;;4924572;29;20080;-90
2023/03/05 16:52:25;;;;;;;3.22;1.35;;;5.80;99.90;;;;;;4929622;29;20475;-93
2023/03/05 16:54:51;;;;;;;3.78;1.25;;;5.90;99.90;;;;;;4916616;29;20116;-89
2023/03/05 16:57:17;;;;;;;3.95;1.10;;;5.90;99.90;;;;;;4917003;29;20024;-92
2023/03/05 16:59:43;;;;;;;5.30;1.02;;;5.90;99.90;;;;;;4923826;29;20020;-90
2023/03/05 17:02:09;;;;;;;2.10;1.20;;;5.80;99.90;;;;;;4936207;29;20036;-91
2023/03/05 17:04:36;;;;;;;2.72;0.90;;;5.80;99.90;;;;;;4935911;29;20030;-89
2023/03/05 17:07:03;;;;;;;2.63;1.17;;;5.70;99.90;;;;;;4936597;29;20050;-90
2023/03/05 17:09:29;;;;;;;3.08;1.30;;;5.70;99.90;;;;;;4936220;29;20124;-90
2023/03/05 17:11:54;;;;;;;2.22;1.38;;;5.70;99.90;;;;;;4936184;29;20803;-90
2023/03/05 17:14:20;;;;;;;1.98;1.20;;;5.60;99.90;;;;;;4936577;29;20032;-89
2023/03/05 17:16:46;;;;;;;1.73;0.93;;;5.70;99.90;;;;;;4937216;29;20087;-93
2023/03/05 17:19:11;;;;;;;4.93;1.88;;;5.60;99.90;;;;;;4939530;29;20023;-91
2023/03/05 17:21:37;;;;;;;1.58;1.20;;;5.60;99.90;;;;;;4939430;29;20055;-89
2023/03/05 17:24:03;;;;;;;3.42;0.95;;;5.60;99.90;;;;;;4939098;29;20038;-89
2023/03/05 17:26:31;;;;;;;4.13;1.00;;;5.70;99.90;;;;;;4938812;29;20055;-89
2023/03/05 17:29:00;;;;;;;4.28;0.80;;;5.60;99.90;;;;;;4938582;29;20040;-88
2023/03/05 17:31:26;;;;;;;3.42;1.80;;;5.70;99.90;;;;;;4938493;29;20042;-89
2023/03/05 17:33:53;;;;;;;3.47;1.20;;;5.60;99.90;;;;;;4938079;29;20028;-89
2023/03/05 17:36:20;;;;;;;3.05;1.00;;;5.70;99.90;;;;;;4939130;29;20375;-90
2023/03/05 17:38:47;;;;;;;3.47;1.48;;;5.70;99.90;;;;;;4938550;29;20020;-90
2023/03/05 17:41:13;;;;;;;4.07;1.10;;;5.70;99.90;;;;;;4921465;29;20459;-88
2023/03/05 17:43:39;;;;;;;2.42;1.23;;;5.50;99.90;;;;;;4939339;29;20075;-89
2023/03/05 17:46:05;;;;;;;7.03;2.60;;;5.50;99.90;;;;;;4940805;29;20114;-89
2023/03/05 17:48:32;;;;;;;3.70;2.10;;;5.50;99.90;;;;;;4941508;29;20095;-90
2023/03/05 17:50:59;;;;;;;3.58;1.10;;;5.60;99.90;;;;;;4940866;29;20068;-90
2023/03/05 17:53:25;;;;;;;1.48;0.82;;;5.50;99.90;;;;;;4942880;29;20035;-89
2023/03/05 17:55:50;;;;;;;4.40;1.70;;;5.40;99.90;;;;;;4946659;29;20031;-90
2023/03/05 17:58:16;;;;;;;2.20;1.10;;;5.50;99.90;;;;;;4946345;29;20020;-90
2023/03/05 18:00:41;;;;;;;8.75;3.15;;;5.50;99.90;;;;;;4933558;29;20097;-89
2023/03/05 18:03:07;;;;;;;4.65;3.22;;;5.50;99.90;;;;;;4929420;29;20075;-90
2023/03/05 18:05:33;;;;;;;2.95;1.77;;;5.50;99.90;;;;;;4934718;29;20067;-89
2023/03/05 18:07:59;;;;;;;2.53;1.80;;;5.50;99.90;;;;;;4930258;29;20107;-90
2023/03/05 18:10:26;;;;;;;4.78;2.20;;;5.50;99.90;;;;;;4937935;29;20505;-90
2023/03/05 18:12:52;;;;;;;5.25;2.00;;;5.60;99.90;;;;;;4937980;29;20027;-90
2023/03/05 18:15:20;;;;;;;3.72;1.55;;;5.50;99.90;;;;;;4933487;29;20106;-90
2023/03/05 18:17:46;;;;;;;2.67;1.10;;;5.50;99.90;;;;;;4945780;29;20047;-91
2023/03/05 18:20:34;;;;;;;3.13;1.40;;;5.60;99.90;;;;;;4919885;29;20460;-90
2023/03/05 18:23:02;;;;;;;3.35;1.77;;;5.50;99.90;;;;;;4921133;29;20028;-90
2023/03/05 18:25:31;;;;;;;2.45;1.70;;;5.50;99.90;;;;;;4937976;29;20106;-89
2023/03/05 18:28:02;;;;;;;2.28;1.40;;;5.40;99.90;;;;;;4936292;29;20039;-91
2023/03/05 18:30:28;;;;;;;3.33;1.45;;;5.30;99.90;;;;;;4937806;29;20043;-90
2023/03/05 18:32:54;;;;;;;1.67;0.80;;;5.30;99.90;;;;;;4920772;29;20122;-90
2023/03/05 18:35:20;;;;;;;1.88;0.77;;;5.40;99.90;;;;;;4934537;29;20024;-90
2023/03/05 18:37:45;;;;;;;2.35;1.05;;;5.30;99.90;;;;;;4928264;29;20028;-90
2023/03/05 18:40:19;;;;;;;2.47;0.98;;;5.30;99.90;;;;;;4931093;29;20032;-90
2023/03/05 18:42:45;;;;;;;1.83;0.93;;;5.30;99.90;;;;;;4928531;29;20059;-89
2023/03/05 18:45:14;;;;;;;2.42;1.33;;;5.30;99.90;;;;;;4933390;29;20055;-90
2023/03/05 18:47:41;;;;;;;1.55;1.30;;;5.30;99.90;;;;;;4929075;29;20090;-90
2023/03/05 18:50:08;;;;;;;2.75;1.17;;;5.30;99.90;;;;;;4920262;29;20471;-89
2023/03/05 18:52:34;;;;;;;2.40;1.65;;;5.30;99.90;;;;;;4918309;29;20100;-90
2023/03/05 18:55:00;;;;;;;2.15;1.10;;;5.20;99.90;;;;;;4944379;29;20510;-89
2023/03/05 18:57:25;;;;;;;3.80;1.30;;;5.20;99.90;;;;;;4924652;29;20034;-91
2023/03/05 18:59:51;;;;;;;1.73;1.23;;;5.20;99.90;;;;;;4937616;29;20043;-90
2023/03/05 19:02:17;;;;;;;2.75;1.00;;;5.30;99.90;;;;;;4924802;29;20070;-88
2023/03/05 19:04:42;;;;;;;2.42;1.50;;;5.30;99.90;;;;;;4936830;29;20367;-89
2023/03/05 19:07:08;;;;;;;5.78;1.88;;;5.20;99.90;;;;;;4936627;29;20020;-90
2023/03/05 19:09:52;;;;;;;3.40;1.10;;;5.20;99.90;;;;;;4924311;29;20114;-92
2023/03/05 19:12:19;;;;;;;5.13;2.10;;;5.20;99.90;;;;;;4924281;29;20028;-89
2023/03/05 19:14:45;;;;;;;1.90;1.35;;;5.20;99.90;;;;;;4917869;29;20024;-90
2023/03/05 19:17:11;;;;;;;2.08;1.23;;;5.20;99.90;;;;;;4930037;29;20039;-90
2023/03/05 19:19:36;;;;;;;1.75;1.40;;;5.20;99.90;;;;;;4936304;29;20023;-91
2023/03/05 19:22:02;;;;;;;5.82;4.05;;;5.20;99.90;;;;;;4936963;29;20118;-90
2023/03/05 19:24:29;;;;;;;5.60;2.47;;;5.20;99.90;;;;;;4936335;29;20160;-89